Time;durP1;ratioP1;P1;durP2;ratioP2;P2;SDS_P1;SDS_P2;PMS_P1;PMS_P2;Temp;Humidity;BMP_temperature;BMP_pressure;BME280_temperature;BME280_humidity;BME280_pressure;Samples;Min_cycle;Max_cycle;Signal;HPM_P1;HPM_P2
2022/02/06 00:00:16;;;;;;;21.90;7.47;;;;;;;;;;5053139;28;20072;-67
2022/02/06 00:02:46;;;;;;;19.33;7.85;;;;;;;;;;5052678;28;20056;-68
2022/02/06 00:05:15;;;;;;;19.52;7.75;;;;;;;;;;5052834;28;20040;-69
2022/02/06 00:07:46;;;;;;;20.90;8.07;;;;;;;;;;5051866;28;20045;-69
2022/02/06 00:10:15;;;;;;;18.48;7.63;;;;;;;;;;5052719;28;20132;-69
2022/02/06 00:12:43;;;;;;;19.52;8.25;;;;;;;;;;5052848;28;20041;-70
2022/02/06 00:15:11;;;;;;;22.13;8.57;;;;;;;;;;5052737;28;20119;-69
2022/02/06 00:17:40;;;;;;;20.52;8.23;;;;;;;;;;5052647;28;20396;-71
2022/02/06 00:20:07;;;;;;;22.90;8.30;;;;;;;;;;5049246;28;20539;-70
2022/02/06 00:22:41;;;;;;;20.40;8.05;;;;;;;;;;5052473;28;20037;-69
2022/02/06 00:33:24;;;;;;;17.73;7.22;;;;;;;;;;5052370;28;20041;-69
2022/02/06 00:38:33;;;;;;;23.45;7.90;;;;;;;;;;5052547;28;20457;-67
2022/02/06 00:43:28;;;;;;;24.92;7.70;;;;;;;;;;5052277;28;20504;-71
2022/02/06 00:45:56;;;;;;;19.30;7.38;;;;;;;;;;5051942;28;20112;-67
2022/02/06 00:48:27;;;;;;;22.42;7.57;;;;;;;;;;5052509;28;20049;-69
2022/02/06 00:51:43;;;;;;;17.73;7.18;;;;;;;;;;5052307;28;20045;-67
2022/02/06 00:53:45;;;;;;;21.08;7.70;;;;;;;;;;5044866;28;20128;-71
2022/02/06 00:56:13;;;;;;;20.88;7.30;;;;;;;;;;5052293;28;20049;-67
2022/02/06 00:58:41;;;;;;;24.10;7.90;;;;;;;;;;5052395;28;20048;-70
2022/02/06 01:01:10;;;;;;;22.98;7.30;;;;;;;;;;5051223;28;20049;-70
2022/02/06 01:03:38;;;;;;;16.63;7.65;;;;;;;;;;5052083;28;20072;-69
2022/02/06 01:06:05;;;;;;;22.65;8.32;;;;;;;;;;5051364;28;20404;-69
2022/02/06 01:08:34;;;;;;;18.52;7.47;;;;;;;;;;5052046;28;20143;-67
2022/02/06 01:11:08;;;;;;;17.40;7.78;;;;;;;;;;5049678;28;20547;-67
2022/02/06 01:13:48;;;;;;;21.00;7.43;;;;;;;;;;5044877;28;20124;-71
2022/02/06 01:16:27;;;;;;;16.50;7.03;;;;;;;;;;5052249;28;20408;-67
2022/02/06 01:19:02;;;;;;;18.42;6.88;;;;;;;;;;5053866;28;20072;-67
2022/02/06 01:26:57;;;;;;;17.40;6.72;;;;;;;;;;5045113;28;20124;-68
2022/02/06 01:29:54;;;;;;;17.35;6.93;;;;;;;;;;5055592;28;20392;-70
2022/02/06 01:32:21;;;;;;;16.95;6.35;;;;;;;;;;5055287;28;20040;-72
2022/02/06 01:35:00;;;;;;;;;;;;;;;;;;5054944;28;20131;-68
2022/02/06 01:37:37;;;;;;;15.23;6.35;;;;;;;;;;5054289;28;19960;-68
2022/02/06 01:40:18;;;;;;;15.23;6.68;;;;;;;;;;5055752;28;20516;-71
2022/02/06 01:42:58;;;;;;;16.17;6.07;;;;;;;;;;5054428;28;20053;-68
2022/02/06 01:45:42;;;;;;;20.25;6.47;;;;;;;;;;5054457;28;20639;-68
2022/02/06 02:47:11;;;;;;;21.60;6.15;;;;;;;;;;5054215;28;20037;-67
2022/02/06 02:49:46;;;;;;;21.27;6.38;;;;;;;;;;5053904;28;20037;-67
2022/02/06 02:52:23;;;;;;;13.38;6.00;;;;;;;;;;5053830;28;20404;-67
2022/02/06 02:54:59;;;;;;;19.52;6.40;;;;;;;;;;5053655;28;20079;-70
2022/02/06 02:57:41;;;;;;;15.32;6.35;;;;;;;;;;5048677;28;20041;-71
2022/02/06 03:00:23;;;;;;;13.65;5.75;;;;;;;;;;5054043;28;20136;-71
2022/02/06 03:02:58;;;;;;;19.58;6.07;;;;;;;;;;5053269;28;20123;-71
2022/02/06 03:05:26;;;;;;;24.95;6.50;;;;;;;;;;5053688;28;20392;-70
2022/02/06 03:07:56;;;;;;;17.70;6.30;;;;;;;;;;5053209;28;20486;-67
2022/02/06 03:10:23;;;;;;;15.45;6.38;;;;;;;;;;5053122;28;20047;-69
2022/02/06 03:12:53;;;;;;;18.25;6.20;;;;;;;;;;5053299;28;20047;-69
2022/02/06 03:15:34;;;;;;;16.08;5.72;;;;;;;;;;5053524;28;20411;-67
2022/02/06 03:18:04;;;;;;;13.73;5.47;;;;;;;;;;5053652;28;20040;-69
2022/02/06 03:20:34;;;;;;;11.35;5.28;;;;;;;;;;5053239;28;20119;-69
2022/02/06 03:23:04;;;;;;;14.18;5.78;;;;;;;;;;5053482;28;20045;-70
2022/02/06 03:25:33;;;;;;;12.20;5.10;;;;;;;;;;5053506;28;20067;-71
2022/02/06 03:28:02;;;;;;;15.77;6.43;;;;;;;;;;5053480;28;20055;-70
2022/02/06 03:30:30;;;;;;;10.25;5.70;;;;;;;;;;5052231;28;20128;-70
2022/02/06 03:32:59;;;;;;;11.63;5.50;;;;;;;;;;5053379;28;20444;-67
2022/02/06 03:35:27;;;;;;;12.27;5.00;;;;;;;;;;5053283;28;20040;-67
2022/02/06 03:37:54;;;;;;;16.38;5.53;;;;;;;;;;5053424;28;20047;-70
2022/02/06 03:40:27;;;;;;;20.30;5.47;;;;;;;;;;5053129;28;20040;-70
2022/02/06 03:43:06;;;;;;;12.48;5.15;;;;;;;;;;5053217;28;20048;-70
2022/02/06 03:45:58;;;;;;;17.45;5.40;;;;;;;;;;5053301;28;20124;-67
2022/02/06 03:48:45;;;;;;;14.52;5.13;;;;;;;;;;5053661;28;20055;-70
2022/02/06 03:51:19;;;;;;;10.65;5.15;;;;;;;;;;5053803;28;20087;-70
2022/02/06 03:53:48;;;;;;;13.95;4.72;;;;;;;;;;5053229;28;20108;-67
2022/02/06 03:56:16;;;;;;;10.65;4.88;;;;;;;;;;5052904;28;20041;-69
2022/02/06 03:58:43;;;;;;;13.30;5.03;;;;;;;;;;5051930;28;20043;-70
2022/02/06 04:01:11;;;;;;;13.98;5.20;;;;;;;;;;5052973;28;20044;-67
2022/02/06 04:03:38;;;;;;;11.82;6.28;;;;;;;;;;5051923;28;20076;-70
2022/02/06 04:06:08;;;;;;;13.23;5.45;;;;;;;;;;5053060;28;20040;-69
2022/02/06 04:08:38;;;;;;;17.27;5.53;;;;;;;;;;5052779;28;20045;-67
2022/02/06 04:11:10;;;;;;;14.40;5.68;;;;;;;;;;5053308;28;20040;-67
2022/02/06 04:13:52;;;;;;;17.00;5.37;;;;;;;;;;5053335;28;20432;-69
2022/02/06 04:16:38;;;;;;;16.20;5.68;;;;;;;;;;5052969;28;20047;-70
2022/02/06 04:22:06;;;;;;;12.70;5.07;;;;;;;;;;5022378;28;20050;-70
2022/02/06 04:24:33;;;;;;;10.93;4.97;;;;;;;;;;5053068;28;20043;-71
2022/02/06 04:27:01;;;;;;;17.48;5.65;;;;;;;;;;5053213;28;20045;-68
2022/02/06 04:29:29;;;;;;;13.75;4.80;;;;;;;;;;5052826;28;20048;-70
2022/02/06 04:31:58;;;;;;;13.77;5.53;;;;;;;;;;5052973;28;20056;-70
2022/02/06 04:34:28;;;;;;;14.45;5.72;;;;;;;;;;5052687;28;20037;-70
2022/02/06 04:37:07;;;;;;;12.15;5.10;;;;;;;;;;5052738;28;20112;-70
2022/02/06 05:14:29;;;;;;;15.40;5.07;;;;;;;;;;5055558;28;20106;-71
2022/02/06 05:30:38;;;;;;;11.55;5.43;;;;;;;;;;5055985;28;20063;-71
2022/02/06 05:33:07;;;;;;;19.42;6.22;;;;;;;;;;5055747;28;20044;-70
2022/02/06 05:35:36;;;;;;;13.68;6.18;;;;;;;;;;5056088;28;20048;-70
2022/02/06 05:38:03;;;;;;;14.40;5.80;;;;;;;;;;5056301;28;20053;-70
2022/02/06 05:40:31;;;;;;;13.35;6.57;;;;;;;;;;5055905;28;20519;-70
2022/02/06 05:42:58;;;;;;;18.35;7.00;;;;;;;;;;5055983;28;20361;-71
2022/02/06 05:45:26;;;;;;;14.55;6.72;;;;;;;;;;5054445;28;20052;-70
2022/02/06 05:47:55;;;;;;;16.98;6.40;;;;;;;;;;5055903;28;20048;-68
2022/02/06 05:50:23;;;;;;;16.40;7.00;;;;;;;;;;5055823;28;20123;-71
2022/02/06 05:52:51;;;;;;;17.75;8.35;;;;;;;;;;5055483;28;20091;-69
2022/02/06 05:55:19;;;;;;;22.42;8.95;;;;;;;;;;5055465;28;20385;-70
2022/02/06 05:57:46;;;;;;;26.42;11.00;;;;;;;;;;5055225;28;20381;-70
2022/02/06 06:00:15;;;;;;;27.48;12.50;;;;;;;;;;5054550;28;20055;-70
2022/02/06 06:02:42;;;;;;;30.45;14.25;;;;;;;;;;5050274;28;20048;-70
2022/02/06 06:05:11;;;;;;;27.75;13.85;;;;;;;;;;5054926;28;20041;-67
2022/02/06 06:07:42;;;;;;;30.98;15.23;;;;;;;;;;5055565;28;20380;-68
2022/02/06 06:10:10;;;;;;;26.92;14.02;;;;;;;;;;5055010;28;20045;-71
2022/02/06 06:12:38;;;;;;;25.48;13.63;;;;;;;;;;5055118;28;20070;-71
2022/02/06 06:15:07;;;;;;;30.88;14.32;;;;;;;;;;5054983;28;20033;-70
2022/02/06 06:17:37;;;;;;;29.98;14.23;;;;;;;;;;5055032;28;20068;-71
2022/02/06 06:20:08;;;;;;;26.58;13.45;;;;;;;;;;5055094;28;20044;-70
2022/02/06 06:22:36;;;;;;;26.38;13.07;;;;;;;;;;5054877;28;20037;-70
2022/02/06 06:25:06;;;;;;;25.90;13.00;;;;;;;;;;5055341;28;20040;-70
2022/02/06 06:27:34;;;;;;;26.92;12.15;;;;;;;;;;5054795;28;20047;-70
2022/02/06 06:30:01;;;;;;;24.55;11.90;;;;;;;;;;5054911;28;20500;-68
2022/02/06 06:32:29;;;;;;;24.23;11.15;;;;;;;;;;5054826;28;20047;-71
2022/02/06 06:34:57;;;;;;;25.85;10.60;;;;;;;;;;5054696;28;20045;-68
2022/02/06 06:37:24;;;;;;;23.88;10.18;;;;;;;;;;5054825;28;20045;-68
2022/02/06 06:39:52;;;;;;;18.20;9.25;;;;;;;;;;5054624;28;20064;-70
2022/02/06 06:42:21;;;;;;;16.70;8.65;;;;;;;;;;5054799;28;20044;-67
2022/02/06 06:44:48;;;;;;;16.10;8.30;;;;;;;;;;5054453;28;20068;-69
2022/02/06 06:47:16;;;;;;;17.67;8.40;;;;;;;;;;5054648;28;20048;-71
2022/02/06 06:49:43;;;;;;;17.85;7.70;;;;;;;;;;5054683;28;20045;-71
2022/02/06 06:52:10;;;;;;;15.55;6.95;;;;;;;;;;5054221;28;20072;-68
2022/02/06 06:54:45;;;;;;;12.25;6.03;;;;;;;;;;5054279;28;20052;-70
2022/02/06 06:57:20;;;;;;;11.13;6.47;;;;;;;;;;5053848;28;20045;-72
2022/02/06 07:00:20;;;;;;;15.65;6.47;;;;;;;;;;5054373;28;20051;-69
2022/02/06 07:02:35;;;;;;;13.32;6.35;;;;;;;;;;5053998;28;20128;-72
2022/02/06 07:05:04;;;;;;;16.42;6.20;;;;;;;;;;5054090;28;20056;-69
2022/02/06 07:07:36;;;;;;;15.50;6.80;;;;;;;;;;5054022;28;20049;-69
2022/02/06 07:10:04;;;;;;;20.15;6.15;;;;;;;;;;5053853;28;20048;-73
2022/02/06 07:12:31;;;;;;;16.48;6.43;;;;;;;;;;5054134;28;20047;-69
2022/02/06 07:15:00;;;;;;;12.13;5.75;;;;;;;;;;5053901;28;20037;-69
2022/02/06 07:17:27;;;;;;;11.05;5.40;;;;;;;;;;5052847;28;20041;-72
2022/02/06 07:19:55;;;;;;;9.70;4.75;;;;;;;;;;5053876;28;20037;-72
2022/02/06 07:22:22;;;;;;;11.73;5.00;;;;;;;;;;5052251;28;20044;-70
2022/02/06 07:24:53;;;;;;;15.18;5.55;;;;;;;;;;5053535;28;20510;-72
2022/02/06 07:29:48;;;;;;;14.30;5.45;;;;;;;;;;5053998;28;20037;-72
2022/02/06 07:32:15;;;;;;;15.10;5.63;;;;;;;;;;5053717;28;20047;-72
2022/02/06 07:34:43;;;;;;;15.82;4.80;;;;;;;;;;5053203;28;20450;-70
2022/02/06 07:37:10;;;;;;;13.05;5.05;;;;;;;;;;5052502;28;20428;-69
2022/02/06 07:39:38;;;;;;;12.10;5.00;;;;;;;;;;5053535;28;20372;-69
2022/02/06 07:42:09;;;;;;;12.80;5.50;;;;;;;;;;5053626;28;20571;-69
2022/02/06 07:44:39;;;;;;;17.35;5.50;;;;;;;;;;5051964;28;20091;-70
2022/02/06 07:47:19;;;;;;;22.75;6.30;;;;;;;;;;5051487;28;20111;-69
2022/02/06 07:49:49;;;;;;;10.93;5.80;;;;;;;;;;5055696;28;20101;-70
2022/02/06 07:52:17;;;;;;;18.25;9.77;;;;;;;;;;5061182;28;20045;-67
2022/02/06 07:54:45;;;;;;;21.00;9.05;;;;;;;;;;5042362;28;20495;-70
2022/02/06 07:57:12;;;;;;;21.20;9.13;;;;;;;;;;5044188;28;20487;-69
2022/02/06 07:59:40;;;;;;;16.42;8.70;;;;;;;;;;5042417;28;20401;-68
2022/02/06 08:02:08;;;;;;;18.80;8.90;;;;;;;;;;5045832;28;20037;-69
2022/02/06 08:04:35;;;;;;;19.23;9.00;;;;;;;;;;5041968;28;20124;-69
2022/02/06 08:07:04;;;;;;;23.13;7.82;;;;;;;;;;5051776;28;20499;-68
2022/02/06 08:12:25;;;;;;;18.13;7.35;;;;;;;;;;5050423;28;20063;-69
2022/02/06 08:14:55;;;;;;;12.10;5.20;;;;;;;;;;5052990;28;20053;-68
2022/02/06 08:17:26;;;;;;;16.27;6.05;;;;;;;;;;5052603;28;20049;-71
2022/02/06 08:19:54;;;;;;;15.05;5.97;;;;;;;;;;5037243;28;20060;-69
2022/02/06 08:22:22;;;;;;;16.98;5.03;;;;;;;;;;5031301;28;20046;-69
2022/02/06 08:24:50;;;;;;;18.55;5.32;;;;;;;;;;5032639;28;20404;-68
2022/02/06 08:27:25;;;;;;;13.63;4.93;;;;;;;;;;5034999;28;20140;-67
2022/02/06 08:29:53;;;;;;;10.45;4.85;;;;;;;;;;5058747;28;20041;-68
2022/02/06 08:32:23;;;;;;;11.73;5.07;;;;;;;;;;5057230;28;20065;-70
2022/02/06 08:34:50;;;;;;;14.15;5.22;;;;;;;;;;5058603;28;20052;-69
2022/02/06 08:37:18;;;;;;;15.10;5.07;;;;;;;;;;5057631;28;20800;-68
2022/02/06 08:39:46;;;;;;;18.98;5.95;;;;;;;;;;5058756;28;20037;-69
2022/02/06 08:42:14;;;;;;;11.73;4.43;;;;;;;;;;5058636;28;20045;-71
2022/02/06 08:44:44;;;;;;;22.48;4.60;;;;;;;;;;5059175;28;20095;-71
2022/02/06 08:47:12;;;;;;;10.35;4.55;;;;;;;;;;5059224;28;20033;-69
2022/02/06 08:49:44;;;;;;;15.25;4.50;;;;;;;;;;5057236;28;20037;-69
2022/02/06 08:52:12;;;;;;;18.13;5.45;;;;;;;;;;5058527;28;20045;-69
2022/02/06 08:54:40;;;;;;;11.40;4.57;;;;;;;;;;5058047;28;20071;-70
2022/02/06 08:57:21;;;;;;;16.02;7.15;;;;;;;;;;5057243;28;20440;-67
2022/02/06 08:59:54;;;;;;;15.13;6.70;;;;;;;;;;5058543;28;20045;-67
2022/02/06 09:02:21;;;;;;;17.55;7.03;;;;;;;;;;5058332;28;20047;-69
2022/02/06 09:04:49;;;;;;;22.50;7.28;;;;;;;;;;5055730;28;20041;-68
2022/02/06 09:07:18;;;;;;;16.63;7.53;;;;;;;;;;5058922;28;20033;-68
2022/02/06 09:09:54;;;;;;;14.95;6.22;;;;;;;;;;5058163;28;20049;-69
2022/02/06 09:12:22;;;;;;;16.45;7.25;;;;;;;;;;5058610;28;20465;-68
2022/02/06 09:14:49;;;;;;;14.07;6.60;;;;;;;;;;5058630;28;20136;-69
2022/02/06 09:17:17;;;;;;;15.20;6.18;;;;;;;;;;5055826;28;20059;-69
2022/02/06 09:19:45;;;;;;;17.52;6.93;;;;;;;;;;5057124;28;20045;-67
2022/02/06 09:22:13;;;;;;;15.82;6.25;;;;;;;;;;5057157;28;20044;-71
2022/02/06 09:24:41;;;;;;;18.30;6.15;;;;;;;;;;5055882;28;20037;-70
2022/02/06 09:27:09;;;;;;;15.15;5.75;;;;;;;;;;5057669;28;20128;-71
2022/02/06 09:29:41;;;;;;;15.65;6.10;;;;;;;;;;5057373;28;20037;-68
2022/02/06 09:37:26;;;;;;;17.17;5.30;;;;;;;;;;5056062;28;20048;-69
2022/02/06 09:39:56;;;;;;;16.73;6.45;;;;;;;;;;5052548;28;20061;-69
2022/02/06 09:42:25;;;;;;;14.40;6.32;;;;;;;;;;5054397;28;20116;-70
2022/02/06 09:44:55;;;;;;;14.82;6.05;;;;;;;;;;5054015;28;20040;-71
2022/02/06 09:47:24;;;;;;;14.43;6.50;;;;;;;;;;5052888;28;20041;-71
2022/02/06 09:49:52;;;;;;;12.27;5.55;;;;;;;;;;5051588;28;20397;-69
2022/02/06 09:52:25;;;;;;;14.32;5.60;;;;;;;;;;5052350;28;20045;-70
2022/02/06 09:54:54;;;;;;;13.25;4.78;;;;;;;;;;5054273;28;20052;-68
2022/02/06 09:57:30;;;;;;;12.35;5.47;;;;;;;;;;5052019;28;20045;-70
2022/02/06 10:00:01;;;;;;;13.55;5.45;;;;;;;;;;5035083;28;20453;-71
2022/02/06 10:02:36;;;;;;;11.15;5.38;;;;;;;;;;5114646;23;20077;-69
2022/02/06 10:05:04;;;;;;;13.68;5.38;;;;;;;;;;5053454;28;20116;-70
2022/02/06 10:07:43;;;;;;;13.63;5.93;;;;;;;;;;5053301;28;20040;-71
2022/02/06 10:10:12;;;;;;;12.30;4.80;;;;;;;;;;5035410;28;20052;-71
2022/02/06 10:12:44;;;;;;;12.55;4.80;;;;;;;;;;5055040;28;20049;-68
2022/02/06 10:15:13;;;;;;;11.02;4.13;;;;;;;;;;5054890;28;20116;-71
2022/02/06 10:17:41;;;;;;;11.13;4.68;;;;;;;;;;5054734;28;20120;-69
2022/02/06 10:20:34;;;;;;;14.70;4.53;;;;;;;;;;5054773;28;20140;-69
2022/02/06 10:23:05;;;;;;;7.97;3.08;;;;;;;;;;5054514;28;20029;-71
2022/02/06 10:25:40;;;;;;;11.55;3.47;;;;;;;;;;5054736;28;20037;-71
2022/02/06 10:30:38;;;;;;;8.60;3.08;;;;;;;;;;5054468;28;20048;-69
2022/02/06 10:33:07;;;;;;;;;;;;;;;;;;5054812;28;20045;-69
2022/02/06 10:35:39;;;;;;;6.93;2.30;;;;;;;;;;5054735;28;19927;-72
2022/02/06 10:38:22;;;;;;;3.72;2.28;;;;;;;;;;5054468;28;20116;-72
2022/02/06 10:41:04;;;;;;;6.63;2.47;;;;;;;;;;5054365;28;20116;-69
2022/02/06 10:43:32;;;;;;;7.18;3.30;;;;;;;;;;5054636;28;20381;-71
2022/02/06 10:46:07;;;;;;;7.93;3.20;;;;;;;;;;5036513;28;20048;-70
2022/02/06 10:48:35;;;;;;;11.73;3.30;;;;;;;;;;5054374;28;20070;-71
2022/02/06 10:51:02;;;;;;;7.63;3.30;;;;;;;;;;5053969;28;20044;-70
2022/02/06 10:53:30;;;;;;;12.18;3.25;;;;;;;;;;5054017;28;20055;-68
2022/02/06 10:55:59;;;;;;;12.20;2.90;;;;;;;;;;5054381;28;20110;-71
2022/02/06 10:58:31;;;;;;;7.20;3.08;;;;;;;;;;5053799;28;20407;-71
2022/02/06 11:01:05;;;;;;;10.80;2.67;;;;;;;;;;5054101;28;20045;-71
2022/02/06 11:03:38;;;;;;;8.90;2.60;;;;;;;;;;5053885;28;20087;-70
2022/02/06 11:06:25;;;;;;;8.63;2.63;;;;;;;;;;5036061;28;20131;-70
2022/02/06 11:08:53;;;;;;;10.23;2.78;;;;;;;;;;5053833;28;20115;-68
2022/02/06 11:11:32;;;;;;;7.50;2.83;;;;;;;;;;5053763;28;20061;-71
2022/02/06 11:14:13;;;;;;;11.02;2.67;;;;;;;;;;5053776;28;20037;-68
2022/02/06 11:16:46;;;;;;;4.65;2.03;;;;;;;;;;5053648;28;20037;-71
2022/02/06 11:19:17;;;;;;;5.03;2.45;;;;;;;;;;5053826;28;20055;-69
2022/02/06 11:21:46;;;;;;;5.30;2.17;;;;;;;;;;5053320;28;20119;-71
2022/02/06 11:24:20;;;;;;;7.60;2.60;;;;;;;;;;5053489;28;20060;-68
2022/02/06 11:26:48;;;;;;;4.05;2.42;;;;;;;;;;5053396;28;20460;-71
2022/02/06 11:29:16;;;;;;;7.47;2.60;;;;;;;;;;5053044;28;20111;-71
2022/02/06 11:31:44;;;;;;;9.50;2.78;;;;;;;;;;5053490;28;20048;-71
2022/02/06 11:34:15;;;;;;;10.13;2.60;;;;;;;;;;5052933;28;20048;-71
2022/02/06 11:45:27;;;;;;;11.85;2.92;;;;;;;;;;5052863;28;20512;-70
2022/02/06 11:48:00;;;;;;;8.98;2.55;;;;;;;;;;5053121;28;20041;-68
2022/02/06 11:50:30;;;;;;;9.57;2.70;;;;;;;;;;5053490;28;20124;-69
2022/02/06 11:52:59;;;;;;;11.50;2.95;;;;;;;;;;5052792;28;20068;-71
2022/02/06 11:55:50;;;;;;;7.88;2.55;;;;;;;;;;5053052;28;20045;-68
2022/02/06 11:58:31;;;;;;;7.90;2.75;;;;;;;;;;5016364;28;20052;-70
2022/02/06 12:01:08;;;;;;;8.88;2.90;;;;;;;;;;5032528;28;20038;-70
2022/02/06 12:03:56;;;;;;;11.68;3.10;;;;;;;;;;5032482;28;20148;-71
2022/02/06 12:06:25;;;;;;;11.18;2.92;;;;;;;;;;5033382;28;20407;-70
2022/02/06 12:08:59;;;;;;;9.02;3.05;;;;;;;;;;5015058;28;20057;-70
2022/02/06 12:11:32;;;;;;;10.05;2.78;;;;;;;;;;5032619;28;20407;-70
2022/02/06 12:14:11;;;;;;;9.57;2.95;;;;;;;;;;5033069;28;20053;-70
2022/02/06 12:16:49;;;;;;;10.10;3.08;;;;;;;;;;5032696;28;20042;-70
2022/02/06 12:19:35;;;;;;;10.68;3.40;;;;;;;;;;5032608;28;20045;-68
2022/02/06 12:22:21;;;;;;;10.57;3.72;;;;;;;;;;5032805;28;20050;-71
2022/02/06 12:24:48;;;;;;;11.23;3.40;;;;;;;;;;5032806;28;20039;-68
2022/02/06 12:27:23;;;;;;;10.93;3.38;;;;;;;;;;5032931;28;20067;-68
2022/02/06 12:29:57;;;;;;;9.95;3.33;;;;;;;;;;5033013;28;20063;-68
2022/02/06 12:32:33;;;;;;;9.07;2.60;;;;;;;;;;5032632;28;20045;-71
2022/02/06 12:37:51;;;;;;;12.88;3.85;;;;;;;;;;5032929;28;20408;-68
2022/02/06 12:40:23;;;;;;;7.40;2.88;;;;;;;;;;5032510;28;20432;-68
2022/02/06 12:43:03;;;;;;;14.25;3.45;;;;;;;;;;5032577;28;20045;-71
2022/02/06 12:45:31;;;;;;;8.32;3.20;;;;;;;;;;5032423;28;20045;-72
2022/02/06 12:48:00;;;;;;;11.07;3.05;;;;;;;;;;5032106;28;20101;-71
2022/02/06 12:50:30;;;;;;;6.82;2.67;;;;;;;;;;5032580;28;20120;-71
2022/02/06 12:52:57;;;;;;;10.63;3.30;;;;;;;;;;5032710;28;20042;-70
2022/02/06 12:55:28;;;;;;;12.30;3.80;;;;;;;;;;5032364;28;20050;-71
2022/02/06 12:57:56;;;;;;;11.27;3.05;;;;;;;;;;5032699;28;20136;-71
2022/02/06 13:00:33;;;;;;;9.27;3.25;;;;;;;;;;5032231;28;20435;-71
2022/02/06 13:03:21;;;;;;;14.85;3.80;;;;;;;;;;5031914;28;20136;-70
2022/02/06 13:05:53;;;;;;;9.30;2.97;;;;;;;;;;5032523;28;20042;-69
2022/02/06 13:08:21;;;;;;;9.10;2.90;;;;;;;;;;5032282;28;20056;-71
2022/02/06 13:10:50;;;;;;;10.80;3.40;;;;;;;;;;5014280;28;20524;-69
2022/02/06 13:13:21;;;;;;;8.10;3.47;;;;;;;;;;5032037;28;20069;-72
2022/02/06 13:22:18;;;;;;;6.05;3.13;;;;;;;;;;5035922;28;20117;-73
2022/02/06 13:25:06;;;;;;;13.48;3.22;;;;;;;;;;5036092;28;20029;-69
2022/02/06 13:38:50;;;;;;;11.02;3.60;;;;;;;;;;5035857;28;20049;-69
2022/02/06 13:41:23;;;;;;;11.65;3.97;;;;;;;;;;5035628;28;20477;-72
2022/02/06 13:43:53;;;;;;;10.85;4.03;;;;;;;;;;5001666;28;20045;-69
2022/02/06 13:46:23;;;;;;;9.73;3.40;;;;;;;;;;5035711;28;20076;-71
2022/02/06 13:48:51;;;;;;;10.73;4.03;;;;;;;;;;5035606;28;20041;-69
2022/02/06 13:51:24;;;;;;;10.60;3.38;;;;;;;;;;5035607;28;20202;-71
2022/02/06 13:54:01;;;;;;;15.57;3.45;;;;;;;;;;5017913;28;20404;-70
2022/02/06 13:56:29;;;;;;;10.18;3.53;;;;;;;;;;5035392;28;20179;-70
2022/02/06 13:58:58;;;;;;;8.55;2.90;;;;;;;;;;5017223;28;20499;-70
2022/02/06 14:01:45;;;;;;;10.02;3.70;;;;;;;;;;5034763;28;20100;-70
2022/02/06 14:04:30;;;;;;;11.30;3.45;;;;;;;;;;5035153;28;20073;-71
2022/02/06 14:07:10;;;;;;;9.25;3.72;;;;;;;;;;5034795;28;20038;-70
2022/02/06 14:12:16;;;;;;;8.98;3.42;;;;;;;;;;5034859;28;20168;-68
2022/02/06 14:14:56;;;;;;;10.73;3.65;;;;;;;;;;5034668;28;20065;-70
2022/02/06 14:17:35;;;;;;;6.90;3.60;;;;;;;;;;5034941;28;20125;-68
2022/02/06 14:20:09;;;;;;;12.07;4.57;;;;;;;;;;5017005;28;20049;-71
2022/02/06 14:22:38;;;;;;;15.48;3.88;;;;;;;;;;5034410;28;20405;-71
2022/02/06 14:25:15;;;;;;;11.55;3.70;;;;;;;;;;5034177;28;20046;-68
2022/02/06 14:27:45;;;;;;;10.15;3.83;;;;;;;;;;5034548;28;20478;-70
2022/02/06 14:30:27;;;;;;;9.00;3.33;;;;;;;;;;5000290;28;20416;-71
2022/02/06 14:33:05;;;;;;;12.98;3.72;;;;;;;;;;5034470;28;20048;-68
2022/02/06 14:35:49;;;;;;;12.68;4.32;;;;;;;;;;5034043;28;20069;-68
2022/02/06 14:38:24;;;;;;;9.60;3.85;;;;;;;;;;5034524;28;20049;-70
2022/02/06 14:41:18;;;;;;;13.00;3.67;;;;;;;;;;5034504;28;20050;-71
2022/02/06 14:43:47;;;;;;;11.55;3.90;;;;;;;;;;5034226;28;20442;-69
2022/02/06 14:46:19;;;;;;;11.27;3.90;;;;;;;;;;5033926;28;20072;-71
2022/02/06 14:48:47;;;;;;;11.20;3.95;;;;;;;;;;5034201;28;20481;-70
2022/02/06 14:51:23;;;;;;;11.40;4.07;;;;;;;;;;5034035;28;20049;-68
2022/02/06 14:53:58;;;;;;;11.13;3.80;;;;;;;;;;5034225;28;20045;-71
2022/02/06 14:56:26;;;;;;;9.48;4.07;;;;;;;;;;5033928;28;20045;-69
2022/02/06 14:58:54;;;;;;;13.18;4.10;;;;;;;;;;5033554;28;20049;-71
2022/02/06 15:01:24;;;;;;;9.13;3.97;;;;;;;;;;4999850;28;20132;-72
2022/02/06 15:03:52;;;;;;;13.93;4.45;;;;;;;;;;5033424;28;20428;-69
2022/02/06 15:06:20;;;;;;;9.43;4.00;;;;;;;;;;5034276;28;20063;-70
2022/02/06 15:08:52;;;;;;;9.45;3.50;;;;;;;;;;5033635;28;20041;-71
2022/02/06 15:11:20;;;;;;;11.43;4.10;;;;;;;;;;5033374;28;20144;-71
2022/02/06 15:13:48;;;;;;;13.02;4.03;;;;;;;;;;5034010;28;20137;-69
2022/02/06 15:16:19;;;;;;;14.68;4.15;;;;;;;;;;5033691;28;20107;-71
2022/02/06 15:18:57;;;;;;;12.00;4.40;;;;;;;;;;5033721;28;20302;-70
2022/02/06 15:21:24;;;;;;;9.43;3.72;;;;;;;;;;5033449;28;20037;-68
2022/02/06 15:23:52;;;;;;;13.48;3.42;;;;;;;;;;5033456;28;20049;-70
2022/02/06 15:26:19;;;;;;;11.57;4.57;;;;;;;;;;5033326;28;20045;-71
2022/02/06 15:28:50;;;;;;;9.90;3.65;;;;;;;;;;5033668;28;20044;-70
2022/02/06 15:31:18;;;;;;;12.85;4.13;;;;;;;;;;4999191;28;20053;-70
2022/02/06 15:34:08;;;;;;;15.75;3.63;;;;;;;;;;5033138;28;20628;-71
2022/02/06 15:36:38;;;;;;;11.68;3.80;;;;;;;;;;5032386;28;20487;-69
2022/02/06 15:39:25;;;;;;;7.10;3.70;;;;;;;;;;5015697;28;20413;-70
2022/02/06 15:41:55;;;;;;;10.88;4.07;;;;;;;;;;5015367;28;20041;-70
2022/02/06 15:44:25;;;;;;;11.63;4.13;;;;;;;;;;5032936;28;20121;-68
2022/02/06 15:46:52;;;;;;;13.43;4.05;;;;;;;;;;5032691;28;20045;-71
2022/02/06 15:49:21;;;;;;;13.13;4.47;;;;;;;;;;5016326;28;20049;-69
2022/02/06 15:51:49;;;;;;;9.07;3.83;;;;;;;;;;5033398;28;20045;-71
2022/02/06 15:54:17;;;;;;;11.35;3.92;;;;;;;;;;5032958;28;20456;-71
2022/02/06 15:56:45;;;;;;;10.85;3.40;;;;;;;;;;5033075;28;20045;-70
2022/02/06 15:59:12;;;;;;;10.68;3.63;;;;;;;;;;5032637;28;20056;-68
2022/02/06 16:01:40;;;;;;;10.93;3.97;;;;;;;;;;5032638;28;20041;-71
2022/02/06 16:04:09;;;;;;;9.70;3.67;;;;;;;;;;5032698;28;20049;-70
2022/02/06 16:06:37;;;;;;;17.33;4.60;;;;;;;;;;5032762;28;20053;-70
2022/02/06 16:09:05;;;;;;;8.43;4.00;;;;;;;;;;5032529;28;20038;-70
2022/02/06 16:11:33;;;;;;;7.95;3.92;;;;;;;;;;5032723;28;20053;-70
2022/02/06 16:14:01;;;;;;;11.32;4.50;;;;;;;;;;5032836;28;20056;-70
2022/02/06 16:16:30;;;;;;;12.65;4.40;;;;;;;;;;5032521;28;20045;-71
2022/02/06 16:18:58;;;;;;;14.95;4.40;;;;;;;;;;5032619;28;20481;-68
2022/02/06 16:21:28;;;;;;;10.30;4.13;;;;;;;;;;5014674;28;20398;-68
2022/02/06 16:23:58;;;;;;;9.43;4.10;;;;;;;;;;5032215;28;20037;-72
2022/02/06 16:26:25;;;;;;;7.10;3.42;;;;;;;;;;5032913;28;20045;-69
2022/02/06 16:28:55;;;;;;;12.63;4.13;;;;;;;;;;5032525;28;20042;-68
2022/02/06 16:31:23;;;;;;;15.38;4.28;;;;;;;;;;5032423;28;20128;-71
2022/02/06 16:33:51;;;;;;;11.35;4.20;;;;;;;;;;5032309;28;20052;-70
2022/02/06 16:36:18;;;;;;;22.80;4.93;;;;;;;;;;5032475;28;20041;-70
2022/02/06 16:38:46;;;;;;;20.33;5.35;;;;;;;;;;5015204;28;20048;-69
2022/02/06 16:41:13;;;;;;;10.27;4.53;;;;;;;;;;5014934;28;20037;-69
2022/02/06 16:43:45;;;;;;;13.02;4.93;;;;;;;;;;5032382;28;20037;-70
2022/02/06 16:46:16;;;;;;;12.93;4.65;;;;;;;;;;5032069;28;20053;-70
2022/02/06 16:48:44;;;;;;;10.75;4.38;;;;;;;;;;5034224;28;20069;-70
2022/02/06 16:51:12;;;;;;;11.20;5.55;;;;;;;;;;5036305;28;20068;-69
2022/02/06 16:53:40;;;;;;;14.48;4.82;;;;;;;;;;5036404;28;20045;-69
2022/02/06 16:56:08;;;;;;;11.57;4.57;;;;;;;;;;5036313;28;20049;-69
2022/02/06 16:58:36;;;;;;;10.45;4.30;;;;;;;;;;5036035;28;20129;-69
2022/02/06 17:01:03;;;;;;;14.75;9.40;;;;;;;;;;5036278;28;20049;-67
2022/02/06 17:03:31;;;;;;;13.35;5.10;;;;;;;;;;5036204;28;20128;-69
2022/02/06 17:05:59;;;;;;;15.95;4.30;;;;;;;;;;5036195;28;20485;-67
2022/02/06 17:08:27;;;;;;;13.30;4.65;;;;;;;;;;5036357;28;20045;-67
2022/02/06 17:10:56;;;;;;;14.57;5.07;;;;;;;;;;5036071;28;20041;-71
2022/02/06 17:13:24;;;;;;;14.85;4.90;;;;;;;;;;5036163;28;20412;-71
2022/02/06 17:15:51;;;;;;;15.18;5.10;;;;;;;;;;5036146;28;20045;-71
2022/02/06 17:18:19;;;;;;;9.65;4.38;;;;;;;;;;5018514;28;20389;-69
2022/02/06 17:20:46;;;;;;;16.63;4.20;;;;;;;;;;5035944;28;20072;-71
2022/02/06 17:23:15;;;;;;;14.27;4.85;;;;;;;;;;5035844;28;20046;-72
2022/02/06 17:25:43;;;;;;;14.98;4.97;;;;;;;;;;5036062;28;20046;-69
2022/02/06 17:28:11;;;;;;;15.55;5.15;;;;;;;;;;5035939;28;20045;-69
2022/02/06 17:30:40;;;;;;;13.93;5.07;;;;;;;;;;5036091;28;20041;-72
2022/02/06 17:33:07;;;;;;;13.95;4.68;;;;;;;;;;5036036;28;20061;-71
2022/02/06 17:35:36;;;;;;;9.15;4.40;;;;;;;;;;5035596;28;20408;-71
2022/02/06 17:38:03;;;;;;;17.02;5.18;;;;;;;;;;5017759;28;20057;-69
2022/02/06 17:40:31;;;;;;;17.40;5.20;;;;;;;;;;5018088;28;20096;-71
2022/02/06 17:43:00;;;;;;;15.00;4.72;;;;;;;;;;5035690;28;20041;-72
2022/02/06 17:45:27;;;;;;;13.10;4.95;;;;;;;;;;5035786;28;20109;-71
2022/02/06 17:47:58;;;;;;;15.15;6.53;;;;;;;;;;5017494;28;20069;-69